createdAt,value
2018-09-19T00:01:51.262Z,19.73
2018-09-19T00:04:20.476Z,19.62
2018-09-19T00:06:49.529Z,19.57
2018-09-19T00:09:18.528Z,19.46
2018-09-19T00:11:47.716Z,19.39
2018-09-19T00:14:16.716Z,19.30
2018-09-19T00:16:45.711Z,19.29
2018-09-19T00:19:14.814Z,19.24
2018-09-19T00:21:43.886Z,19.43
2018-09-19T00:24:12.893Z,19.29
2018-09-19T00:26:41.893Z,19.20
2018-09-19T00:29:10.924Z,19.11
2018-09-19T00:31:39.950Z,19.08
2018-09-19T00:34:08.962Z,19.08
2018-09-19T00:36:37.964Z,19.05
2018-09-19T00:39:07.999Z,18.98
2018-09-19T00:41:37.165Z,19.00
2018-09-19T00:44:06.205Z,18.92
2018-09-19T00:46:35.175Z,18.90
2018-09-19T00:49:04.258Z,18.82
2018-09-19T00:51:33.249Z,18.84
2018-09-19T00:54:02.258Z,18.75
2018-09-19T00:56:31.299Z,18.65
2018-09-19T00:59:00.269Z,18.67
2018-09-19T01:01:29.305Z,18.66
2018-09-19T01:03:58.305Z,18.64
2018-09-19T01:06:27.516Z,18.54
2018-09-19T01:08:56.522Z,18.55
2018-09-19T01:11:25.522Z,18.53
2018-09-19T01:13:54.539Z,18.47
2018-09-19T01:16:23.547Z,18.43
2018-09-19T01:18:52.552Z,18.40
2018-09-19T01:21:21.550Z,18.39
2018-09-19T01:23:50.554Z,18.42
2018-09-19T01:26:19.549Z,18.47
2018-09-19T01:28:48.579Z,18.38
2018-09-19T01:31:17.565Z,18.40
2018-09-19T01:33:46.582Z,18.39
2018-09-19T01:36:15.570Z,18.38
2018-09-19T01:38:44.887Z,18.35
2018-09-19T01:41:13.869Z,18.32
2018-09-19T01:43:42.881Z,18.31
2018-09-19T01:46:11.855Z,18.25
2018-09-19T01:48:40.877Z,18.19
2018-09-19T01:51:09.922Z,18.18
2018-09-19T01:53:38.941Z,18.19
2018-09-19T01:56:07.930Z,18.18
2018-09-19T01:58:36.931Z,18.18
2018-09-19T02:01:05.934Z,18.14
2018-09-19T02:03:34.999Z,18.12
2018-09-19T02:06:04.118Z,18.10
2018-09-19T02:08:33.126Z,18.05
2018-09-19T02:11:02.130Z,18.04
2018-09-19T02:13:31.229Z,18.06
2018-09-19T02:16:00.170Z,18.08
2018-09-19T02:18:29.358Z,18.09
2018-09-19T02:20:58.359Z,18.05
2018-09-19T02:23:27.376Z,18.06
2018-09-19T02:25:56.539Z,18.07
2018-09-19T02:28:25.553Z,18.13
2018-09-19T02:30:54.638Z,18.09
2018-09-19T02:33:23.625Z,18.09
2018-09-19T02:35:52.631Z,18.00
2018-09-19T02:38:21.638Z,17.95
2018-09-19T02:40:50.751Z,17.95
2018-09-19T02:43:19.783Z,17.96
2018-09-19T02:45:48.804Z,17.96
2018-09-19T02:48:17.792Z,17.94
2018-09-19T02:50:46.799Z,17.90
2018-09-19T02:53:15.793Z,17.87
2018-09-19T02:55:44.795Z,17.86
2018-09-19T02:58:13.792Z,17.92
2018-09-19T03:00:42.888Z,17.91
2018-09-19T03:03:11.883Z,18.04
2018-09-19T03:05:40.887Z,18.05
2018-09-19T03:08:09.907Z,18.07
2018-09-19T03:10:38.928Z,18.02
2018-09-19T03:13:07.980Z,17.99
2018-09-19T03:15:37.003Z,17.95
2018-09-19T03:18:06.104Z,17.92
2018-09-19T03:20:35.107Z,17.89
2018-09-19T03:23:04.107Z,17.85
2018-09-19T03:25:33.127Z,17.72
2018-09-19T03:28:02.119Z,17.70
2018-09-19T03:30:31.319Z,17.57
2018-09-19T03:33:00.508Z,17.51
2018-09-19T03:35:29.523Z,17.44
2018-09-19T03:37:58.569Z,17.40
2018-09-19T03:40:27.675Z,17.40
2018-09-19T03:42:56.765Z,17.37
2018-09-19T03:45:26.561Z,17.46
2018-09-19T03:47:55.560Z,17.43
2018-09-19T03:50:24.595Z,17.42
2018-09-19T03:52:53.611Z,17.43
2018-09-19T03:55:22.618Z,17.43
2018-09-19T03:57:51.631Z,17.42
2018-09-19T04:00:20.634Z,17.42
2018-09-19T04:02:49.686Z,17.37
2018-09-19T04:05:18.696Z,17.34
2018-09-19T04:07:47.689Z,17.33
2018-09-19T04:10:16.740Z,17.46
2018-09-19T04:12:45.744Z,17.34
2018-09-19T04:15:14.757Z,17.23
2018-09-19T04:17:43.800Z,17.21
2018-09-19T04:20:12.761Z,17.35
2018-09-19T04:22:41.844Z,17.18
2018-09-19T04:25:10.869Z,17.10
2018-09-19T04:27:39.862Z,17.08
2018-09-19T04:30:08.879Z,17.05
2018-09-19T04:32:37.873Z,17.01
2018-09-19T04:35:06.895Z,16.92
2018-09-19T04:37:36.559Z,16.85
2018-09-19T04:40:05.776Z,16.85
2018-09-19T04:42:34.841Z,16.91
2018-09-19T04:45:03.891Z,16.85
2018-09-19T04:47:32.859Z,16.84
2018-09-19T04:50:01.891Z,16.74
2018-09-19T04:52:34.285Z,16.72
2018-09-19T04:55:04.238Z,16.64
2018-09-19T04:57:33.250Z,16.58
2018-09-19T05:00:02.254Z,16.60
2018-09-19T05:02:31.388Z,16.56
2018-09-19T05:05:00.390Z,16.52
2018-09-19T05:07:29.418Z,16.47
2018-09-19T05:09:58.417Z,16.49
2018-09-19T05:12:27.460Z,16.42
2018-09-19T05:14:56.460Z,16.36
2018-09-19T05:17:25.463Z,16.43
2018-09-19T05:19:54.448Z,16.43
2018-09-19T05:22:23.457Z,16.50
2018-09-19T05:24:52.517Z,16.83
2018-09-19T05:27:21.509Z,16.69
2018-09-19T05:29:50.507Z,16.65
2018-09-19T05:32:19.528Z,16.68
2018-09-19T05:34:48.830Z,16.64
2018-09-19T05:37:17.712Z,16.69
2018-09-19T05:39:46.707Z,16.66
2018-09-19T05:42:15.721Z,16.75
2018-09-19T05:44:44.698Z,16.74
2018-09-19T05:47:13.793Z,16.74
2018-09-19T05:49:42.819Z,16.77
2018-09-19T05:52:11.840Z,16.83
2018-09-19T05:54:40.900Z,16.85
2018-09-19T05:57:09.866Z,16.87
2018-09-19T05:59:38.954Z,16.93
2018-09-19T06:02:08.055Z,16.98
2018-09-19T06:04:37.042Z,17.07
2018-09-19T06:07:06.154Z,17.12
2018-09-19T06:09:35.154Z,17.16
2018-09-19T06:12:04.167Z,17.28
2018-09-19T06:14:33.489Z,17.38
2018-09-19T06:17:02.542Z,17.44
2018-09-19T06:19:31.529Z,17.54
2018-09-19T06:22:00.591Z,17.61
2018-09-19T06:24:29.579Z,17.63
2018-09-19T06:26:58.676Z,17.77
2018-09-19T06:29:27.630Z,17.82
2018-09-19T06:31:56.698Z,17.90
2018-09-19T06:34:25.709Z,18.03
2018-09-19T06:36:54.986Z,18.31
2018-09-19T06:39:23.963Z,18.29
2018-09-19T06:41:52.963Z,18.36
2018-09-19T06:44:22.077Z,18.34
2018-09-19T06:46:51.133Z,18.44
2018-09-19T06:49:20.069Z,18.58
2018-09-19T06:51:49.103Z,18.70
2018-09-19T06:54:18.087Z,18.82
2018-09-19T06:56:47.305Z,18.95
2018-09-19T06:59:16.306Z,19.17
2018-09-19T07:01:45.334Z,19.27
2018-09-19T07:04:14.441Z,19.48
2018-09-19T07:06:43.521Z,19.62
2018-09-19T07:09:12.538Z,19.77
2018-09-19T07:11:41.622Z,19.81
2018-09-19T07:14:10.632Z,19.94
2018-09-19T07:16:39.699Z,20.09
2018-09-19T07:19:08.827Z,20.24
2018-09-19T07:21:37.838Z,20.45
2018-09-19T07:24:06.831Z,20.54
2018-09-19T07:26:35.946Z,20.57
2018-09-19T07:29:05.278Z,20.67
2018-09-19T07:31:34.275Z,20.69
2018-09-19T07:34:03.307Z,20.81
2018-09-19T07:36:32.302Z,20.74
2018-09-19T07:39:01.399Z,20.76
2018-09-19T07:41:30.424Z,20.76
2018-09-19T07:43:59.436Z,20.80
2018-09-19T07:46:28.537Z,21.03
2018-09-19T07:48:57.497Z,21.11
2018-09-19T07:51:26.493Z,21.28
2018-09-19T07:53:55.590Z,21.25
2018-09-19T07:56:24.621Z,21.41
2018-09-19T07:58:53.606Z,21.48
2018-09-19T08:01:22.676Z,21.69
2018-09-19T08:03:51.604Z,21.77
2018-09-19T08:06:20.597Z,21.74
2018-09-19T08:08:49.606Z,21.92
2018-09-19T08:11:18.601Z,22.03
2018-09-19T08:13:48.792Z,22.40
2018-09-19T08:16:17.782Z,22.33
2018-09-19T08:18:46.785Z,22.39
2018-09-19T08:21:15.784Z,22.54
2018-09-19T08:23:44.791Z,22.73
2018-09-19T08:26:13.782Z,22.78
2018-09-19T08:28:42.910Z,22.67
2018-09-19T08:31:11.915Z,22.96
2018-09-19T08:33:40.915Z,22.98
2018-09-19T08:36:09.975Z,23.24
2018-09-19T08:38:38.992Z,23.28
2018-09-19T08:41:08.103Z,23.49
2018-09-19T08:43:37.104Z,23.63
2018-09-19T08:46:06.166Z,23.63
2018-09-19T08:48:35.322Z,23.62
2018-09-19T08:51:04.287Z,23.72
2018-09-19T08:53:33.349Z,23.88
2018-09-19T08:56:02.390Z,23.99
2018-09-19T08:58:31.468Z,23.90
2018-09-19T09:01:00.563Z,24.00
2018-09-19T09:03:29.562Z,24.16
2018-09-19T09:05:58.568Z,24.09
2018-09-19T09:08:27.590Z,24.19
2018-09-19T09:10:56.583Z,24.34
2018-09-19T09:13:25.594Z,24.36
2018-09-19T09:15:54.686Z,24.56
2018-09-19T09:18:23.723Z,24.61
2018-09-19T09:20:52.815Z,24.73
2018-09-19T09:23:21.893Z,24.80
2018-09-19T09:25:50.878Z,24.93
2018-09-19T09:28:19.876Z,24.81
2018-09-19T09:30:48.881Z,24.72
2018-09-19T09:33:17.885Z,24.86
2018-09-19T09:35:46.895Z,24.99
2018-09-19T09:38:15.926Z,24.87
2018-09-19T09:40:44.947Z,25.08
2018-09-19T09:43:14.560Z,25.28
2018-09-19T09:45:43.677Z,25.53
2018-09-19T09:48:13.292Z,25.63
2018-09-19T09:50:42.306Z,25.78
2018-09-19T09:53:11.356Z,25.80
2018-09-19T09:55:40.370Z,25.78
2018-09-19T09:58:09.406Z,25.96
2018-09-19T10:00:41.657Z,26.21
2018-09-19T10:03:11.865Z,26.37
2018-09-19T10:05:41.278Z,26.38
2018-09-19T10:08:10.275Z,26.34
2018-09-19T10:10:39.597Z,26.27
2018-09-19T10:13:08.582Z,26.58
2018-09-19T10:15:37.589Z,26.72
2018-09-19T10:18:06.609Z,26.73
2018-09-19T10:20:35.618Z,26.84
2018-09-19T10:23:04.607Z,27.06
2018-09-19T10:25:33.609Z,27.05
2018-09-19T10:28:02.601Z,27.00
2018-09-19T10:30:31.599Z,27.16
2018-09-19T10:33:00.690Z,27.32
2018-09-19T10:35:29.787Z,27.23
2018-09-19T10:37:58.825Z,27.21
2018-09-19T10:40:27.863Z,27.57
2018-09-19T10:42:56.887Z,27.55
2018-09-19T10:45:25.895Z,27.78
2018-09-19T10:47:54.934Z,27.90
2018-09-19T10:50:23.957Z,27.99
2018-09-19T10:52:52.975Z,28.19
2018-09-19T10:55:21.978Z,28.18
2018-09-19T10:57:50.980Z,28.18
2018-09-19T11:00:19.982Z,28.43
2018-09-19T11:02:49.420Z,28.48
2018-09-19T11:05:18.584Z,28.46
2018-09-19T11:07:47.744Z,28.44
2018-09-19T11:10:16.735Z,28.47
2018-09-19T11:12:45.803Z,28.62
2018-09-19T11:15:14.802Z,28.90
2018-09-19T11:17:43.822Z,29.14
2018-09-19T11:20:12.875Z,29.05
2018-09-19T11:22:41.867Z,29.01
2018-09-19T11:25:10.890Z,28.89
2018-09-19T11:27:39.886Z,28.89
2018-09-19T11:30:08.890Z,28.82
2018-09-19T11:32:37.974Z,28.62
2018-09-19T11:35:07.143Z,28.82
2018-09-19T11:37:36.134Z,28.99
2018-09-19T11:40:05.299Z,29.02
2018-09-19T11:42:34.399Z,29.05
2018-09-19T11:45:03.470Z,28.65
2018-09-19T11:47:32.559Z,28.78
2018-09-19T11:50:01.684Z,29.23
2018-09-19T11:52:30.787Z,29.49
2018-09-19T11:54:59.839Z,29.43
2018-09-19T11:57:28.946Z,29.28
2018-09-19T11:59:57.957Z,29.35
2018-09-19T12:02:27.039Z,29.29
2018-09-19T12:04:56.042Z,29.54
2018-09-19T12:07:25.104Z,29.32
2018-09-19T12:09:54.242Z,29.13
2018-09-19T12:12:23.291Z,29.31
2018-09-19T12:14:52.279Z,29.38
2018-09-19T12:17:21.299Z,29.51
2018-09-19T12:19:50.401Z,29.65
2018-09-19T12:22:19.517Z,29.61
2018-09-19T12:24:48.509Z,29.56
2018-09-19T12:27:17.522Z,29.61
2018-09-19T12:29:46.578Z,29.77
2018-09-19T12:32:15.586Z,29.94
2018-09-19T12:34:44.679Z,29.91
2018-09-19T12:37:13.678Z,30.04
2018-09-19T12:39:42.750Z,30.07
2018-09-19T12:42:11.750Z,30.11
2018-09-19T12:44:40.875Z,29.99
2018-09-19T12:47:09.880Z,30.00
2018-09-19T12:49:38.881Z,29.89
2018-09-19T12:52:07.898Z,30.09
2018-09-19T12:54:36.904Z,30.25
2018-09-19T12:57:05.974Z,30.30
2018-09-19T12:59:34.934Z,30.28
2018-09-19T13:02:03.931Z,30.28
2018-09-19T13:04:32.922Z,30.31
2018-09-19T13:07:02.039Z,30.46
2018-09-19T13:09:52.377Z,30.43
2018-09-19T13:12:37.599Z,30.36
2018-09-19T13:15:15.503Z,30.44
2018-09-19T13:17:59.950Z,30.46
2018-09-19T13:20:36.850Z,30.49
2018-09-19T13:23:19.267Z,30.56
2018-09-19T13:26:00.040Z,30.55
2018-09-19T13:28:44.049Z,30.49
2018-09-19T13:31:28.073Z,30.38
2018-09-19T13:34:02.609Z,30.36
2018-09-19T13:36:40.214Z,30.41
2018-09-19T13:39:16.327Z,30.53
2018-09-19T13:41:54.221Z,30.44
2018-09-19T13:47:36.221Z,30.48
2018-09-19T13:54:32.253Z,30.50
2018-09-19T13:59:44.431Z,30.50
2018-09-19T14:02:22.218Z,30.52
2018-09-19T14:04:57.465Z,30.63
2018-09-19T14:07:35.043Z,30.76
2018-09-19T14:10:08.673Z,30.69
2018-09-19T14:12:46.725Z,30.77
2018-09-19T14:15:25.444Z,30.66
2018-09-19T14:17:59.913Z,30.61
2018-09-19T14:20:34.706Z,30.60
2018-09-19T14:23:16.115Z,30.65
2018-09-19T14:25:51.866Z,30.68
2018-09-19T14:28:31.013Z,30.65
2018-09-19T14:31:07.304Z,30.62
2018-09-19T14:33:43.577Z,30.60
2018-09-19T14:36:19.444Z,30.51
2018-09-19T14:38:59.308Z,30.48
2018-09-19T14:41:31.693Z,30.64
2018-09-19T14:44:11.205Z,30.60
2018-09-19T14:46:44.675Z,30.36
2018-09-19T14:49:23.494Z,30.17
2018-09-19T14:52:00.789Z,30.14
2018-09-19T14:54:37.773Z,30.10
2018-09-19T14:57:17.854Z,30.01
2018-09-19T15:00:17.440Z,29.92
2018-09-19T15:03:00.927Z,29.80
2018-09-19T15:05:47.761Z,29.81
2018-09-19T15:08:26.966Z,29.89
2018-09-19T15:13:54.187Z,30.02
2018-09-19T15:16:36.381Z,29.92
2018-09-19T15:19:11.761Z,29.97
2018-09-19T15:21:52.587Z,29.87
2018-09-19T15:28:05.157Z,29.86
2018-09-19T15:30:46.232Z,29.66
2018-09-19T15:33:28.341Z,29.78
2018-09-19T15:36:10.403Z,29.65
2018-09-19T15:41:52.117Z,29.52
2018-09-19T15:44:34.295Z,29.55
2018-09-19T15:50:19.082Z,29.33
2018-09-19T15:53:02.543Z,29.28
2018-09-19T15:55:51.957Z,29.31
2018-09-19T16:04:36.611Z,29.06
2018-09-19T16:07:24.639Z,29.06
2018-09-19T16:09:56.222Z,28.97
2018-09-19T16:12:25.223Z,28.81
2018-09-19T16:14:54.381Z,28.83
2018-09-19T16:17:23.438Z,28.99
2018-09-19T16:19:52.419Z,28.86
2018-09-19T16:22:21.554Z,28.83
2018-09-19T16:24:50.639Z,28.75
2018-09-19T16:27:21.220Z,28.69
2018-09-19T16:29:50.300Z,28.65
2018-09-19T16:32:19.270Z,28.53
2018-09-19T16:34:48.342Z,28.48
2018-09-19T16:37:17.343Z,28.57
2018-09-19T16:39:46.327Z,28.59
2018-09-19T16:42:15.350Z,28.56
2018-09-19T16:44:44.354Z,28.38
2018-09-19T16:47:13.418Z,28.35
2018-09-19T16:49:42.504Z,28.27
2018-09-19T16:52:11.494Z,28.24
2018-09-19T16:54:40.494Z,28.20
2018-09-19T16:57:09.490Z,28.17
2018-09-19T16:59:38.475Z,28.06
2018-09-19T17:02:07.483Z,27.92
2018-09-19T17:04:36.487Z,27.74
2018-09-19T17:07:05.535Z,27.53
2018-09-19T17:09:34.595Z,27.06
2018-09-19T17:12:03.583Z,26.70
2018-09-19T17:14:32.582Z,26.39
2018-09-19T17:17:01.571Z,26.13
2018-09-19T17:19:30.564Z,25.80
2018-09-19T17:21:59.686Z,25.58
2018-09-19T17:24:28.785Z,25.40
2018-09-19T17:26:57.807Z,25.25
2018-09-19T17:29:26.847Z,25.00
2018-09-19T17:31:55.862Z,24.75
2018-09-19T17:34:24.909Z,24.63
2018-09-19T17:36:53.898Z,24.40
2018-09-19T17:39:22.926Z,24.26
2018-09-19T17:41:51.912Z,24.03
2018-09-19T17:44:20.910Z,23.92
2018-09-19T17:46:49.907Z,23.75
2018-09-19T17:49:19.002Z,23.64
2018-09-19T17:51:48.003Z,23.45
2018-09-19T17:54:17.118Z,23.31
2018-09-19T17:56:46.108Z,23.15
2018-09-19T17:59:15.188Z,23.03
2018-09-19T18:01:44.280Z,23.09
2018-09-19T18:04:13.282Z,23.11
2018-09-19T18:06:42.290Z,22.96
2018-09-19T18:09:11.346Z,22.83
2018-09-19T18:11:40.356Z,22.78
2018-09-19T18:14:09.377Z,22.69
2018-09-19T18:16:38.464Z,22.67
2018-09-19T18:19:07.554Z,22.62
2018-09-19T18:21:36.659Z,22.56
2018-09-19T18:24:05.722Z,22.53
2018-09-19T18:26:34.731Z,22.51
2018-09-19T18:29:03.720Z,22.41
2018-09-19T18:31:32.791Z,22.44
2018-09-19T18:34:01.791Z,22.38
2018-09-19T18:36:30.806Z,22.31
2018-09-19T18:38:59.942Z,22.34
2018-09-19T18:41:28.929Z,22.28
2018-09-19T18:43:58.106Z,22.18
2018-09-19T18:46:27.131Z,22.20
2018-09-19T18:48:56.146Z,22.08
2018-09-19T18:51:25.162Z,22.03
2018-09-19T18:53:54.188Z,21.97
2018-09-19T18:56:23.256Z,21.91
2018-09-19T18:58:52.264Z,21.84
2018-09-19T19:01:21.246Z,21.83
2018-09-19T19:03:50.383Z,21.85
2018-09-19T19:06:19.379Z,21.70
2018-09-19T19:08:48.487Z,21.65
2018-09-19T19:11:17.499Z,21.65
2018-09-19T19:13:46.490Z,21.66
2018-09-19T19:16:15.566Z,21.57
2018-09-19T19:18:44.556Z,21.53
2018-09-19T19:21:13.667Z,21.58
2018-09-19T19:23:42.646Z,21.50
2018-09-19T19:26:11.645Z,21.51
2018-09-19T19:28:40.647Z,21.45
2018-09-19T19:31:09.644Z,21.36
2018-09-19T19:33:38.634Z,21.40
2018-09-19T19:36:07.622Z,21.30
2018-09-19T19:38:36.649Z,21.28
2018-09-19T19:41:05.655Z,21.21
2018-09-19T19:43:34.650Z,21.12
2018-09-19T19:46:03.671Z,21.09
2018-09-19T19:48:32.646Z,21.14
2018-09-19T19:51:01.634Z,21.17
2018-09-19T19:53:30.646Z,21.34
2018-09-19T19:55:59.782Z,21.30
2018-09-19T19:58:28.852Z,21.33
2018-09-19T20:00:57.886Z,21.45
2018-09-19T20:03:26.878Z,21.37
2018-09-19T20:05:55.869Z,21.41
2018-09-19T20:08:24.834Z,21.36
2018-09-19T20:10:53.812Z,21.39
2018-09-19T20:13:22.878Z,21.37
2018-09-19T20:15:51.900Z,21.27
2018-09-19T20:18:20.882Z,21.17
2018-09-19T20:20:49.888Z,21.10
2018-09-19T20:23:18.929Z,21.01
2018-09-19T20:25:47.810Z,20.91
2018-09-19T20:28:16.787Z,20.89
2018-09-19T20:30:45.770Z,20.86
2018-09-19T20:33:14.739Z,20.85
2018-09-19T20:35:43.718Z,20.95
2018-09-19T20:38:12.782Z,21.03
2018-09-19T20:40:41.810Z,20.90
2018-09-19T20:43:10.801Z,20.79
2018-09-19T20:45:39.794Z,20.86
2018-09-19T20:48:08.779Z,20.87
2018-09-19T20:50:37.754Z,20.82
2018-09-19T20:53:06.739Z,20.82
2018-09-19T20:55:35.714Z,20.77
2018-09-19T20:58:04.695Z,20.79
2018-09-19T21:00:33.762Z,20.71
2018-09-19T21:03:02.755Z,20.62
2018-09-19T21:05:31.735Z,20.59
2018-09-19T21:08:01.067Z,20.65
2018-09-19T21:10:30.031Z,20.57
2018-09-19T21:12:59.011Z,20.47
2018-09-19T21:15:27.990Z,20.37
2018-09-19T21:17:56.994Z,20.31
2018-09-19T21:20:25.990Z,20.39
2018-09-19T21:22:55.069Z,20.40
2018-09-19T21:25:24.050Z,20.32
2018-09-19T21:27:53.058Z,20.29
2018-09-19T21:30:22.044Z,20.19
2018-09-19T21:32:51.062Z,20.11
2018-09-19T21:35:20.055Z,20.08
2018-09-19T21:37:49.056Z,19.96
2018-09-19T21:40:18.054Z,19.88
2018-09-19T21:42:47.053Z,19.86
2018-09-19T21:45:16.055Z,19.89
2018-09-19T21:47:45.055Z,19.87
2018-09-19T21:50:14.091Z,19.83
2018-09-19T21:52:43.082Z,19.83
2018-09-19T21:55:12.070Z,19.84
2018-09-19T21:57:41.067Z,19.77
2018-09-19T22:00:10.403Z,19.69
2018-09-19T22:02:39.391Z,19.59
2018-09-19T22:05:08.416Z,19.50
2018-09-19T22:07:37.494Z,19.49
2018-09-19T22:10:06.530Z,19.42
2018-09-19T22:12:35.524Z,19.41
2018-09-19T22:15:04.816Z,19.39
2018-09-19T22:17:33.831Z,19.32
2018-09-19T22:20:02.822Z,19.34
2018-09-19T22:22:31.823Z,19.33
2018-09-19T22:25:00.819Z,19.29
2018-09-19T22:27:30.165Z,19.29
2018-09-19T22:29:59.138Z,19.23
2018-09-19T22:32:28.147Z,19.21
2018-09-19T22:34:57.134Z,19.21
2018-09-19T22:37:26.151Z,19.20
2018-09-19T22:39:55.140Z,19.20
2018-09-19T22:42:24.159Z,19.18
2018-09-19T22:44:53.190Z,19.23
2018-09-19T22:47:22.275Z,19.35
2018-09-19T22:49:51.274Z,19.35
2018-09-19T22:52:20.271Z,19.37
2018-09-19T22:54:49.277Z,19.37
2018-09-19T22:57:18.262Z,19.33
2018-09-19T22:59:47.258Z,19.28
2018-09-19T23:02:16.230Z,19.19
2018-09-19T23:04:51.469Z,19.13
2018-09-19T23:07:20.455Z,19.04
2018-09-19T23:09:49.543Z,19.03
2018-09-19T23:12:18.562Z,19.09
2018-09-19T23:14:47.570Z,19.03
2018-09-19T23:17:16.586Z,18.99
2018-09-19T23:19:45.574Z,18.91
2018-09-19T23:22:14.562Z,18.91
2018-09-19T23:24:43.579Z,18.88
2018-09-19T23:27:12.575Z,18.88
2018-09-19T23:29:41.577Z,18.80
2018-09-19T23:32:10.562Z,18.71
2018-09-19T23:34:39.572Z,18.63
2018-09-19T23:37:08.555Z,18.74
2018-09-19T23:39:37.560Z,18.76
2018-09-19T23:42:06.706Z,18.68
2018-09-19T23:44:35.706Z,18.70
2018-09-19T23:47:04.715Z,18.76
2018-09-19T23:49:33.726Z,18.83
2018-09-19T23:52:02.703Z,18.77
2018-09-19T23:54:31.790Z,18.69
2018-09-19T23:57:00.955Z,18.62
2018-09-19T23:59:30.045Z,18.69
